createdAt,value
2019-02-03T00:01:43.116Z,9.20
2019-02-03T00:04:13.995Z,9.24
2019-02-03T00:06:45.184Z,9.24
2019-02-03T00:09:18.063Z,9.22
2019-02-03T00:11:48.922Z,9.15
2019-02-03T00:14:19.547Z,9.18
2019-02-03T00:16:51.350Z,9.22
2019-02-03T00:19:21.852Z,9.22
2019-02-03T00:21:52.967Z,9.14
2019-02-03T00:24:23.603Z,9.14
2019-02-03T00:26:54.338Z,9.12
2019-02-03T00:29:24.918Z,9.11
2019-02-03T00:31:57.040Z,9.03
2019-02-03T00:34:27.909Z,9.04
2019-02-03T00:36:58.405Z,9.07
2019-02-03T00:39:29.218Z,9.04
2019-02-03T00:42:00.478Z,9.06
2019-02-03T00:44:31.940Z,9.12
2019-02-03T00:47:03.793Z,9.08
2019-02-03T00:49:34.140Z,9.16
2019-02-03T00:52:04.568Z,9.16
2019-02-03T00:54:35.698Z,9.29
2019-02-03T00:57:08.353Z,9.54
2019-02-03T00:59:39.065Z,9.58
2019-02-03T01:02:09.533Z,9.58
2019-02-03T01:04:40.403Z,9.83
2019-02-03T01:07:11.103Z,9.83
2019-02-03T01:09:41.873Z,9.87
2019-02-03T01:12:12.318Z,9.97
2019-02-03T01:14:43.064Z,9.97
2019-02-03T01:17:13.504Z,10.06
2019-02-03T01:19:43.721Z,10.06
2019-02-03T01:22:14.533Z,10.04
2019-02-03T01:24:45.092Z,10.08
2019-02-03T01:27:15.801Z,10.11
2019-02-03T01:29:47.431Z,10.00
2019-02-03T01:32:18.085Z,10.00
2019-02-03T01:34:48.688Z,10.01
2019-02-03T01:37:19.169Z,9.98
2019-02-03T01:39:52.062Z,9.92
2019-02-03T01:42:22.708Z,9.95
2019-02-03T01:44:53.249Z,9.90
2019-02-03T01:47:24.701Z,10.01
2019-02-03T01:49:55.115Z,10.01
2019-02-03T01:52:25.163Z,10.04
2019-02-03T01:54:55.778Z,10.07
2019-02-03T01:57:26.077Z,10.01
2019-02-03T01:59:56.474Z,10.04
2019-02-03T02:02:27.147Z,10.04
2019-02-03T02:04:57.659Z,9.98
2019-02-03T02:07:28.440Z,9.87
2019-02-03T02:09:58.687Z,9.87
2019-02-03T02:12:29.136Z,9.66
2019-02-03T02:15:00.739Z,9.67
2019-02-03T02:17:31.418Z,9.61
2019-02-03T02:20:01.986Z,9.61
2019-02-03T02:22:33.274Z,9.44
2019-02-03T02:25:03.727Z,9.44
2019-02-03T02:27:34.295Z,9.26
2019-02-03T02:30:06.601Z,9.26
2019-02-03T02:32:37.334Z,9.25
2019-02-03T02:35:09.109Z,9.17
2019-02-03T02:37:39.722Z,9.15
2019-02-03T02:40:13.887Z,9.08
2019-02-03T02:42:44.690Z,9.01
2019-02-03T02:45:15.785Z,8.95
2019-02-03T02:47:46.712Z,8.87
2019-02-03T02:50:39.159Z,8.83
2019-02-03T02:53:10.323Z,8.77
2019-02-03T02:55:41.838Z,8.66
2019-02-03T02:58:12.985Z,8.57
2019-02-03T03:00:43.638Z,8.54
2019-02-03T03:03:14.863Z,8.50
2019-02-03T03:05:45.471Z,8.44
2019-02-03T03:08:19.055Z,8.38
2019-02-03T03:10:48.347Z,8.34
2019-02-03T03:13:18.924Z,8.35
2019-02-03T03:15:50.656Z,8.34
2019-02-03T03:18:23.214Z,8.31
2019-02-03T03:20:53.773Z,8.25
2019-02-03T03:23:24.835Z,8.22
2019-02-03T03:25:55.285Z,8.21
2019-02-03T03:28:25.619Z,8.18
2019-02-03T03:30:56.621Z,8.10
2019-02-03T03:33:27.303Z,8.18
2019-02-03T03:35:59.231Z,8.25
2019-02-03T03:38:32.070Z,8.30
2019-02-03T03:41:02.250Z,8.32
2019-02-03T03:43:32.871Z,8.29
2019-02-03T03:46:06.506Z,8.35
2019-02-03T03:48:37.501Z,8.39
2019-02-03T03:51:08.675Z,8.43
2019-02-03T03:53:39.388Z,8.48
2019-02-03T03:56:10.919Z,8.52
2019-02-03T03:58:41.806Z,8.61
2019-02-03T04:01:12.935Z,8.63
2019-02-03T04:03:43.473Z,8.62
2019-02-03T04:06:13.809Z,8.63
2019-02-03T04:08:45.665Z,8.67
2019-02-03T04:11:16.404Z,8.54
2019-02-03T04:13:46.986Z,8.57
2019-02-03T04:16:18.964Z,8.58
2019-02-03T04:18:49.835Z,8.53
2019-02-03T04:21:20.886Z,8.50
2019-02-03T04:23:51.630Z,8.49
2019-02-03T04:26:22.493Z,8.44
2019-02-03T04:28:53.140Z,8.38
2019-02-03T04:31:23.872Z,8.37
2019-02-03T04:33:54.690Z,8.39
2019-02-03T04:36:25.304Z,8.35
2019-02-03T04:38:58.277Z,8.36
2019-02-03T04:41:28.448Z,8.38
2019-02-03T04:43:59.379Z,8.31
2019-02-03T04:46:29.794Z,8.34
2019-02-03T04:49:00.408Z,8.31
2019-02-03T04:51:31.061Z,8.32
2019-02-03T04:54:01.694Z,8.31
2019-02-03T04:56:32.493Z,8.34
2019-02-03T04:59:03.222Z,8.38
2019-02-03T05:01:33.972Z,8.47
2019-02-03T05:04:05.002Z,8.54
2019-02-03T05:06:35.843Z,8.52
2019-02-03T05:09:11.136Z,8.55
2019-02-03T05:11:41.820Z,8.62
2019-02-03T05:14:12.646Z,8.69
2019-02-03T05:16:44.102Z,8.78
2019-02-03T05:19:14.607Z,8.82
2019-02-03T05:21:45.341Z,8.89
2019-02-03T05:24:16.199Z,8.87
2019-02-03T05:26:46.733Z,8.88
2019-02-03T05:29:17.352Z,8.93
2019-02-03T05:31:48.446Z,9.13
2019-02-03T05:34:19.491Z,9.13
2019-02-03T05:36:50.004Z,9.26
2019-02-03T05:39:24.905Z,9.26
2019-02-03T05:41:53.135Z,9.23
2019-02-03T05:44:25.062Z,9.23
2019-02-03T05:46:55.549Z,9.26
2019-02-03T05:49:25.963Z,9.44
2019-02-03T05:51:56.669Z,9.52
2019-02-03T05:54:27.077Z,9.52
2019-02-03T05:56:57.978Z,9.74
2019-02-03T05:59:28.523Z,9.74
2019-02-03T06:01:59.356Z,9.83
2019-02-03T06:04:29.926Z,9.83
2019-02-03T06:07:00.535Z,9.89
2019-02-03T06:09:36.714Z,9.95
2019-02-03T06:12:03.320Z,10.02
2019-02-03T06:14:33.832Z,10.15
2019-02-03T06:17:05.952Z,10.15
2019-02-03T06:19:37.785Z,10.01
2019-02-03T06:22:09.006Z,9.87
2019-02-03T06:24:40.118Z,9.70
2019-02-03T06:27:10.476Z,9.77
2019-02-03T06:29:41.306Z,9.91
2019-02-03T06:32:12.173Z,9.95
2019-02-03T06:34:42.804Z,9.99
2019-02-03T06:37:13.419Z,9.99
2019-02-03T06:39:48.593Z,10.00
2019-02-03T06:42:16.708Z,10.06
2019-02-03T06:44:47.436Z,10.14
2019-02-03T06:47:26.594Z,10.21
2019-02-03T06:49:57.229Z,10.31
2019-02-03T06:52:27.733Z,10.42
2019-02-03T06:54:58.495Z,10.51
2019-02-03T06:57:29.395Z,10.71
2019-02-03T06:59:59.953Z,10.86
2019-02-03T07:02:30.433Z,11.05
2019-02-03T07:05:01.215Z,11.27
2019-02-03T07:07:35.628Z,11.51
2019-02-03T07:10:08.372Z,11.68
2019-02-03T07:12:39.079Z,11.66
2019-02-03T07:15:10.572Z,11.85
2019-02-03T07:17:42.336Z,11.78
2019-02-03T07:20:15.665Z,11.96
2019-02-03T07:22:46.606Z,12.02
2019-02-03T07:25:17.045Z,12.16
2019-02-03T07:27:47.672Z,12.12
2019-02-03T07:30:19.422Z,12.12
2019-02-03T07:32:52.398Z,12.01
2019-02-03T07:35:24.441Z,12.05
2019-02-03T07:37:56.039Z,11.77
2019-02-03T07:40:26.919Z,11.77
2019-02-03T07:42:57.650Z,11.53
2019-02-03T07:45:28.664Z,11.36
2019-02-03T07:47:58.982Z,11.32
2019-02-03T07:50:29.514Z,11.07
2019-02-03T07:52:59.731Z,11.04
2019-02-03T07:55:30.488Z,11.04
2019-02-03T07:58:01.452Z,11.05
2019-02-03T08:00:31.862Z,11.07
2019-02-03T08:03:02.225Z,11.12
2019-02-03T08:05:32.793Z,11.12
2019-02-03T08:08:03.755Z,11.09
2019-02-03T08:10:34.421Z,11.11
2019-02-03T08:13:05.548Z,11.14
2019-02-03T08:15:36.225Z,10.93
2019-02-03T08:18:09.772Z,11.09
2019-02-03T08:20:40.432Z,11.18
2019-02-03T08:23:11.192Z,11.28
2019-02-03T08:25:43.192Z,11.44
2019-02-03T08:28:13.927Z,11.55
2019-02-03T08:30:44.686Z,11.59
2019-02-03T08:33:15.466Z,11.68
2019-02-03T08:35:46.163Z,11.65
2019-02-03T08:38:16.765Z,11.76
2019-02-03T08:40:48.135Z,11.90
2019-02-03T08:43:21.789Z,11.94
2019-02-03T08:45:53.898Z,12.07
2019-02-03T08:48:25.567Z,12.16
2019-02-03T08:50:56.358Z,12.21
2019-02-03T08:53:27.354Z,12.30
2019-02-03T08:55:58.155Z,12.45
2019-02-03T08:58:29.564Z,12.49
2019-02-03T09:01:01.810Z,12.49
2019-02-03T09:03:33.050Z,12.47
2019-02-03T09:06:04.049Z,12.47
2019-02-03T09:08:34.676Z,12.46
2019-02-03T09:11:05.425Z,12.57
2019-02-03T09:13:36.902Z,12.43
2019-02-03T09:16:07.597Z,12.39
2019-02-03T09:18:39.390Z,12.40
2019-02-03T09:21:09.790Z,12.32
2019-02-03T09:23:40.241Z,12.09
2019-02-03T09:26:11.299Z,11.87
2019-02-03T09:28:41.927Z,12.07
2019-02-03T09:31:12.912Z,11.97
2019-02-03T09:33:45.940Z,11.94
2019-02-03T09:36:16.517Z,11.63
2019-02-03T09:38:47.011Z,11.44
2019-02-03T09:41:23.026Z,11.47
2019-02-03T09:43:58.135Z,11.33
2019-02-03T09:46:29.487Z,11.37
2019-02-03T09:49:00.056Z,11.49
2019-02-03T09:51:33.286Z,11.53
2019-02-03T09:54:05.001Z,11.62
2019-02-03T09:56:38.957Z,11.76
2019-02-03T09:59:09.886Z,11.89
2019-02-03T10:01:40.565Z,12.00
2019-02-03T10:04:11.297Z,12.15
2019-02-03T10:06:42.341Z,12.34
2019-02-03T10:09:12.960Z,12.28
2019-02-03T10:11:43.836Z,12.31
2019-02-03T10:14:13.966Z,12.37
2019-02-03T10:16:47.469Z,12.35
2019-02-03T10:19:18.220Z,12.36
2019-02-03T10:21:49.018Z,12.49
2019-02-03T10:24:20.099Z,12.29
2019-02-03T10:26:51.349Z,12.33
2019-02-03T10:29:21.590Z,12.46
2019-02-03T10:31:52.298Z,12.60
2019-02-03T10:34:22.937Z,12.06
2019-02-03T10:36:53.344Z,11.83
2019-02-03T10:39:25.148Z,11.99
2019-02-03T10:41:56.028Z,12.13
2019-02-03T10:44:26.662Z,12.17
2019-02-03T10:46:57.490Z,12.33
2019-02-03T10:49:28.249Z,12.50
2019-02-03T10:51:59.388Z,12.60
2019-02-03T10:54:30.664Z,12.65
2019-02-03T10:57:01.959Z,12.34
2019-02-03T10:59:32.542Z,12.06
2019-02-03T11:02:04.029Z,12.30
2019-02-03T11:04:35.393Z,12.38
2019-02-03T11:07:06.484Z,12.52
2019-02-03T11:09:37.000Z,12.65
2019-02-03T11:12:07.691Z,12.86
2019-02-03T11:14:38.671Z,12.57
2019-02-03T11:17:10.435Z,12.86
2019-02-03T11:19:43.454Z,12.93
2019-02-03T11:22:14.949Z,12.89
2019-02-03T11:24:45.755Z,12.99
2019-02-03T11:27:16.339Z,13.08
2019-02-03T11:29:47.089Z,12.96
2019-02-03T11:32:18.150Z,13.24
2019-02-03T11:34:48.546Z,13.23
2019-02-03T11:37:21.010Z,13.23
2019-02-03T11:39:51.714Z,13.47
2019-02-03T11:42:22.193Z,13.39
2019-02-03T11:44:53.110Z,13.36
2019-02-03T11:47:23.848Z,13.04
2019-02-03T11:49:54.486Z,12.85
2019-02-03T11:52:25.719Z,12.97
2019-02-03T11:54:56.725Z,13.10
2019-02-03T11:57:27.589Z,13.11
2019-02-03T11:59:58.387Z,13.11
2019-02-03T12:02:29.342Z,13.10
2019-02-03T12:04:59.486Z,13.15
2019-02-03T12:07:30.055Z,13.25
2019-02-03T12:10:00.430Z,13.38
2019-02-03T12:12:30.980Z,13.02
2019-02-03T12:15:54.479Z,12.88
2019-02-03T12:18:24.999Z,13.20
2019-02-03T12:20:57.084Z,13.36
2019-02-03T12:23:27.553Z,13.41
2019-02-03T12:25:58.068Z,13.45
2019-02-03T12:28:29.933Z,13.56
2019-02-03T12:31:01.581Z,13.70
2019-02-03T12:33:33.422Z,13.77
2019-02-03T12:36:04.552Z,13.31
2019-02-03T12:38:37.599Z,13.65
2019-02-03T12:41:08.566Z,13.39
2019-02-03T12:43:40.154Z,13.50
2019-02-03T12:46:10.915Z,13.49
2019-02-03T12:48:41.617Z,13.53
2019-02-03T12:51:12.529Z,13.51
2019-02-03T12:53:44.268Z,12.72
2019-02-03T12:56:15.355Z,12.22
2019-02-03T12:58:47.514Z,12.02
2019-02-03T13:01:20.829Z,11.90
2019-02-03T13:03:51.681Z,12.03
2019-02-03T13:06:23.411Z,12.34
2019-02-03T13:08:53.828Z,12.55
2019-02-03T13:11:24.770Z,12.56
2019-02-03T13:13:55.768Z,12.62
2019-02-03T13:16:26.146Z,12.82
2019-02-03T13:18:57.343Z,12.89
2019-02-03T13:21:29.002Z,12.75
2019-02-03T13:23:59.863Z,12.71
2019-02-03T13:26:31.047Z,12.70
2019-02-03T13:29:01.398Z,12.57
2019-02-03T13:31:31.919Z,12.61
2019-02-03T13:34:03.725Z,12.61
2019-02-03T13:36:35.185Z,12.69
2019-02-03T13:39:09.025Z,12.57
2019-02-03T13:41:40.068Z,12.65
2019-02-03T13:44:10.427Z,12.64
2019-02-03T13:46:40.952Z,12.67
2019-02-03T13:49:11.398Z,12.58
2019-02-03T13:51:42.112Z,12.59
2019-02-03T13:54:12.902Z,12.53
2019-02-03T13:56:43.510Z,12.34
2019-02-03T13:59:13.977Z,12.34
2019-02-03T14:01:44.493Z,12.39
2019-02-03T14:04:14.984Z,12.30
2019-02-03T14:06:45.476Z,12.20
2019-02-03T14:11:45.604Z,12.04
2019-02-03T14:14:16.122Z,12.10
2019-02-03T14:16:46.719Z,12.15
2019-02-03T14:19:17.433Z,12.00
2019-02-03T14:21:49.452Z,11.98
2019-02-03T14:24:19.993Z,11.99
2019-02-03T14:26:51.317Z,12.04
2019-02-03T14:29:22.009Z,12.04
2019-02-03T14:31:52.409Z,12.04
2019-02-03T14:34:22.796Z,12.10
2019-02-03T14:36:54.202Z,12.14
2019-02-03T14:39:25.192Z,11.98
2019-02-03T14:41:55.913Z,12.03
2019-02-03T14:44:26.898Z,11.78
2019-02-03T14:46:57.529Z,11.67
2019-02-03T14:49:28.411Z,11.65
2019-02-03T14:51:59.153Z,11.61
2019-02-03T14:54:29.624Z,11.50
2019-02-03T14:57:00.520Z,11.47
2019-02-03T14:59:32.390Z,11.27
2019-02-03T15:02:03.769Z,11.15
2019-02-03T15:04:35.250Z,11.01
2019-02-03T15:07:06.622Z,10.91
2019-02-03T15:09:37.676Z,10.74
2019-02-03T15:12:08.336Z,10.74
2019-02-03T15:14:37.679Z,10.76
2019-02-03T15:17:08.740Z,10.73
2019-02-03T15:19:40.452Z,10.69
2019-02-03T15:22:12.005Z,10.69
2019-02-03T15:24:43.229Z,10.67
2019-02-03T15:27:14.034Z,10.61
2019-02-03T15:29:43.178Z,10.60
2019-02-03T15:32:13.927Z,10.53
2019-02-03T15:34:44.418Z,10.51
2019-02-03T15:37:15.021Z,10.48
2019-02-03T15:39:45.376Z,10.37
2019-02-03T15:42:17.199Z,10.23
2019-02-03T15:44:49.819Z,10.23
2019-02-03T15:47:20.226Z,10.21
2019-02-03T15:49:51.350Z,10.23
2019-02-03T15:52:21.786Z,10.23
2019-02-03T15:54:52.943Z,10.25
2019-02-03T15:57:24.067Z,10.17
2019-02-03T15:59:55.206Z,10.17
2019-02-03T16:02:27.470Z,10.11
2019-02-03T16:04:57.747Z,10.04
2019-02-03T16:07:29.250Z,10.04
2019-02-03T16:09:59.716Z,10.02
2019-02-03T16:12:30.289Z,10.03
2019-02-03T16:15:01.159Z,10.04
2019-02-03T16:17:32.101Z,9.93
2019-02-03T16:20:02.550Z,9.91
2019-02-03T16:22:34.577Z,9.91
2019-02-03T16:25:06.128Z,9.80
2019-02-03T16:27:37.248Z,9.78
2019-02-03T16:30:09.573Z,9.68
2019-02-03T16:32:39.755Z,9.70
2019-02-03T16:35:11.214Z,9.76
2019-02-03T16:37:41.890Z,9.76
2019-02-03T16:40:18.143Z,9.77
2019-02-03T16:42:49.303Z,9.78
2019-02-03T16:45:19.917Z,9.95
2019-02-03T16:47:51.149Z,9.95
2019-02-03T16:50:27.952Z,10.18
2019-02-03T16:52:59.417Z,10.28
2019-02-03T16:55:30.849Z,10.28
2019-02-03T16:58:01.738Z,10.38
2019-02-03T17:00:34.080Z,10.56
2019-02-03T17:03:05.558Z,10.56
2019-02-03T17:05:36.616Z,10.53
2019-02-03T17:08:08.371Z,10.60
2019-02-03T17:10:39.655Z,10.77
2019-02-03T17:13:10.709Z,10.70
2019-02-03T17:15:54.476Z,10.63
2019-02-03T17:18:25.412Z,10.59
2019-02-03T17:21:02.179Z,10.45
2019-02-03T17:23:29.959Z,10.41
2019-02-03T17:26:04.215Z,10.43
2019-02-03T17:28:34.821Z,10.38
2019-02-03T17:31:05.527Z,10.32
2019-02-03T17:33:38.038Z,10.33
2019-02-03T17:36:09.197Z,10.28
2019-02-03T17:38:39.689Z,10.31
2019-02-03T17:41:11.180Z,10.20
2019-02-03T17:43:42.274Z,10.20
2019-02-03T17:46:13.674Z,10.20
2019-02-03T17:48:44.191Z,10.19
2019-02-03T17:51:15.122Z,10.10
2019-02-03T17:53:45.820Z,10.10
2019-02-03T17:56:16.737Z,10.12
2019-02-03T17:58:47.375Z,10.12
2019-02-03T18:01:18.335Z,10.21
2019-02-03T18:03:49.470Z,10.43
2019-02-03T18:06:20.214Z,10.68
2019-02-03T18:08:50.700Z,10.85
2019-02-03T18:11:21.996Z,10.96
2019-02-03T18:13:54.254Z,11.02
2019-02-03T18:16:24.845Z,11.00
2019-02-03T18:18:56.159Z,11.04
2019-02-03T18:21:26.646Z,11.15
2019-02-03T18:23:58.352Z,11.08
2019-02-03T18:26:29.217Z,11.15
2019-02-03T18:28:59.839Z,11.12
2019-02-03T18:31:30.662Z,11.17
2019-02-03T18:34:01.139Z,11.31
2019-02-03T18:36:32.999Z,11.38
2019-02-03T18:39:06.093Z,11.43
2019-02-03T18:41:36.833Z,11.48
2019-02-03T18:44:04.829Z,11.56
2019-02-03T18:46:35.689Z,11.63
2019-02-03T18:49:06.701Z,11.76
2019-02-03T18:51:37.491Z,11.84
2019-02-03T18:54:08.551Z,11.98
2019-02-03T18:56:39.526Z,12.00
2019-02-03T18:59:10.743Z,11.96
2019-02-03T19:01:41.361Z,11.87
2019-02-03T19:04:13.696Z,11.79
2019-02-03T19:06:45.995Z,11.56
2019-02-03T19:09:16.888Z,11.36
2019-02-03T19:11:47.974Z,11.31
2019-02-03T19:14:20.326Z,11.25
2019-02-03T19:16:51.327Z,11.14
2019-02-03T19:19:21.916Z,11.04
2019-02-03T19:21:52.761Z,11.06
2019-02-03T19:24:24.495Z,11.06
2019-02-03T19:26:55.124Z,11.10
2019-02-03T19:29:26.041Z,11.21
2019-02-03T19:31:56.673Z,11.31
2019-02-03T19:34:28.895Z,11.42
2019-02-03T19:39:29.196Z,11.42
2019-02-03T19:42:00.270Z,11.45
2019-02-03T19:44:31.038Z,11.47
2019-02-03T19:47:01.526Z,11.53
2019-02-03T19:49:32.585Z,11.58
2019-02-03T19:52:03.720Z,11.56
2019-02-03T19:54:35.258Z,11.59
2019-02-03T19:57:06.184Z,11.65
2019-02-03T19:59:46.526Z,11.65
2019-02-03T20:02:09.662Z,11.72
2019-02-03T20:04:40.536Z,11.71
2019-02-03T20:07:11.596Z,11.63
2019-02-03T20:09:42.560Z,11.69
2019-02-03T20:12:14.339Z,11.69
2019-02-03T20:14:45.319Z,11.78
2019-02-03T20:17:16.174Z,11.85
2019-02-03T20:19:48.152Z,11.94
2019-02-03T20:22:20.433Z,11.94
2019-02-03T20:24:51.917Z,11.99
2019-02-03T20:27:22.691Z,11.99
2019-02-03T20:29:53.468Z,12.07
2019-02-03T20:32:24.512Z,12.19
2019-02-03T20:34:55.254Z,12.26
2019-02-03T20:37:26.704Z,12.32
2019-02-03T20:40:02.006Z,12.35
2019-02-03T20:42:29.998Z,12.38
2019-02-03T20:45:00.722Z,12.42
2019-02-03T20:47:31.892Z,12.46
2019-02-03T20:50:02.761Z,12.50
2019-02-03T20:52:33.647Z,12.51
2019-02-03T20:55:04.370Z,12.56
2019-02-03T20:57:35.605Z,12.56
2019-02-03T21:00:08.576Z,12.56
2019-02-03T21:02:39.532Z,12.57
2019-02-03T21:05:10.579Z,12.65
2019-02-03T21:07:42.174Z,12.70
2019-02-03T21:10:15.204Z,12.71
2019-02-03T21:12:46.624Z,12.71
2019-02-03T21:15:19.471Z,12.76
2019-02-03T21:17:51.136Z,12.82
2019-02-03T21:20:23.752Z,12.87
2019-02-03T21:22:54.449Z,12.86
2019-02-03T21:25:26.457Z,12.89
2019-02-03T21:27:57.540Z,12.85
2019-02-03T21:30:33.818Z,12.88
2019-02-03T21:33:05.150Z,12.92
2019-02-03T21:35:36.181Z,12.90
2019-02-03T21:38:09.060Z,12.88
2019-02-03T21:40:39.885Z,12.87
2019-02-03T21:43:10.614Z,12.84
2019-02-03T21:45:45.039Z,12.77
2019-02-03T21:48:13.795Z,12.67
2019-02-03T21:50:44.304Z,12.67
2019-02-03T21:53:15.372Z,12.36
2019-02-03T21:55:45.774Z,12.12
2019-02-03T21:58:16.463Z,11.90
2019-02-03T22:00:47.303Z,11.67
2019-02-03T22:03:17.868Z,11.55
2019-02-03T22:05:48.583Z,11.43
2019-02-03T22:08:19.481Z,11.35
2019-02-03T22:10:49.870Z,11.36
2019-02-03T22:13:20.878Z,11.42
2019-02-03T22:15:55.830Z,11.52
2019-02-03T22:18:24.254Z,11.55
2019-02-03T22:20:54.737Z,11.69
2019-02-03T22:23:25.247Z,11.65
2019-02-03T22:25:56.479Z,11.65
2019-02-03T22:28:27.131Z,11.63
2019-02-03T22:30:57.815Z,11.68
2019-02-03T22:33:28.930Z,11.70
2019-02-03T22:36:02.563Z,11.65
2019-02-03T22:38:33.282Z,11.60
2019-02-03T22:41:03.914Z,11.65
2019-02-03T22:43:34.427Z,11.68
2019-02-03T22:46:07.278Z,11.65
2019-02-03T22:48:37.804Z,11.66
2019-02-03T22:51:10.627Z,11.64
2019-02-03T22:53:41.148Z,11.65
2019-02-03T22:56:11.732Z,11.65
2019-02-03T22:58:43.824Z,11.51
2019-02-03T23:01:23.931Z,11.62
2019-02-03T23:04:07.926Z,11.60
2019-02-03T23:06:38.723Z,11.59
2019-02-03T23:09:32.862Z,11.59
2019-02-03T23:12:05.502Z,11.52
2019-02-03T23:14:36.286Z,11.55
2019-02-03T23:17:08.866Z,11.61
2019-02-03T23:19:39.337Z,11.63
2019-02-03T23:22:09.860Z,11.66
2019-02-03T23:24:40.517Z,11.61
2019-02-03T23:27:12.739Z,11.51
2019-02-03T23:29:43.579Z,11.53
2019-02-03T23:32:14.244Z,11.47
2019-02-03T23:34:44.562Z,11.43
2019-02-03T23:37:15.582Z,11.36
2019-02-03T23:39:46.740Z,11.37
2019-02-03T23:42:17.702Z,11.42
2019-02-03T23:44:48.348Z,11.44
2019-02-03T23:47:18.929Z,11.41
2019-02-03T23:49:49.588Z,11.38
2019-02-03T23:52:20.704Z,11.36
2019-02-03T23:54:51.274Z,11.27
2019-02-03T23:57:22.136Z,11.24
2019-02-03T23:59:53.142Z,11.24
